Time;durP1;ratioP1;P1;durP2;ratioP2;P2;SDS_P1;SDS_P2;PMS_P1;PMS_P2;Temp;Humidity;BMP_temperature;BMP_pressure;BME280_temperature;BME280_humidity;BME280_pressure;Samples;Min_cycle;Max_cycle;Signal;HPM_P1;HPM_P2
2021/12/28 00:01:36;;;;;;;14.68;9.88;;;5.10;99.00;;;;;;5128489;27;36447;-60
2021/12/28 00:04:04;;;;;;;14.77;10.63;;;5.10;99.00;;;;;;5127672;27;37984;-60
2021/12/28 00:06:32;;;;;;;15.32;10.43;;;5.10;99.00;;;;;;5128370;27;37299;-60
2021/12/28 00:08:59;;;;;;;14.93;10.70;;;5.10;99.00;;;;;;5127753;27;37165;-60
2021/12/28 00:11:26;;;;;;;14.93;9.63;;;5.10;99.10;;;;;;5128370;27;38666;-59
2021/12/28 00:14:00;;;;;;;16.73;10.05;;;5.10;99.10;;;;;;5128781;27;37570;-59
2021/12/28 00:17:58;;;;;;;16.92;11.50;;;5.20;99.10;;;;;;5127515;27;36355;-60
2021/12/28 00:19:22;;;;;;;14.93;10.27;;;5.20;99.10;;;;;;5127999;27;37879;-60
2021/12/28 00:21:50;;;;;;;16.58;10.65;;;5.20;99.10;;;;;;5127620;27;37560;-60
2021/12/28 00:24:17;;;;;;;15.43;11.20;;;5.20;99.20;;;;;;5127781;27;38044;-61
2021/12/28 00:26:45;;;;;;;15.55;10.70;;;5.20;99.20;;;;;;5127360;27;38747;-60
2021/12/28 00:29:12;;;;;;;15.55;11.10;;;5.20;99.20;;;;;;5127310;27;37427;-61
2021/12/28 00:31:39;;;;;;;14.73;10.25;;;5.20;99.20;;;;;;5127433;27;37360;-60
2021/12/28 00:34:07;;;;;;;15.88;11.02;;;5.30;99.30;;;;;;5128151;27;38571;-60
2021/12/28 00:36:35;;;;;;;17.10;10.48;;;5.20;99.30;;;;;;5127842;27;37170;-61
2021/12/28 00:39:03;;;;;;;18.02;11.52;;;5.30;99.30;;;;;;5127639;27;36691;-61
2021/12/28 00:41:30;;;;;;;16.00;10.70;;;5.30;99.30;;;;;;5127979;27;36294;-61
2021/12/28 00:43:58;;;;;;;15.20;10.77;;;5.30;99.40;;;;;;5126792;27;38314;-61
2021/12/28 00:46:25;;;;;;;15.30;10.18;;;5.30;99.40;;;;;;5128231;27;36110;-61
2021/12/28 00:48:54;;;;;;;16.45;10.85;;;5.30;99.60;;;;;;5128137;27;38677;-60
2021/12/28 00:51:21;;;;;;;15.88;11.35;;;5.30;99.60;;;;;;5126602;27;37951;-60
2021/12/28 00:53:50;;;;;;;16.35;11.63;;;5.30;99.50;;;;;;5127061;27;37708;-60
2021/12/28 00:56:17;;;;;;;18.65;11.70;;;5.30;99.50;;;;;;5126320;27;37456;-61
2021/12/28 00:58:44;;;;;;;15.63;11.30;;;5.40;99.60;;;;;;5127296;27;37642;-60
2021/12/28 01:01:12;;;;;;;16.48;11.13;;;5.40;99.60;;;;;;5127428;27;37335;-60
2021/12/28 01:03:39;;;;;;;16.75;12.10;;;5.40;99.50;;;;;;5130873;27;37815;-61
2021/12/28 01:06:07;;;;;;;16.20;11.85;;;5.40;99.60;;;;;;5131233;27;38478;-61
2021/12/28 01:08:34;;;;;;;17.20;11.88;;;5.40;99.60;;;;;;5131253;27;36897;-61
2021/12/28 01:11:03;;;;;;;16.17;11.77;;;5.40;99.60;;;;;;5130416;27;38601;-61
2021/12/28 01:13:31;;;;;;;18.70;12.90;;;5.40;99.60;;;;;;5130260;27;38698;-61
2021/12/28 01:15:58;;;;;;;18.75;12.70;;;5.40;99.70;;;;;;5131108;27;37923;-61
2021/12/28 01:18:26;;;;;;;18.67;12.25;;;5.50;99.70;;;;;;5131165;27;38122;-61
2021/12/28 01:20:53;;;;;;;21.40;13.32;;;5.40;99.70;;;;;;5130962;27;38471;-61
2021/12/28 01:23:21;;;;;;;20.75;14.35;;;5.50;99.70;;;;;;5130481;27;37627;-61
2021/12/28 01:25:48;;;;;;;18.95;13.80;;;5.50;99.80;;;;;;5129972;27;36076;-61
2021/12/28 01:28:17;;;;;;;22.10;14.95;;;5.60;99.80;;;;;;5129720;27;38671;-61
2021/12/28 01:30:44;;;;;;;18.98;13.65;;;5.60;99.80;;;;;;5130792;27;37447;-61
2021/12/28 01:33:12;;;;;;;19.55;14.30;;;5.60;99.80;;;;;;5129525;27;37486;-61
2021/12/28 01:35:40;;;;;;;22.25;15.77;;;5.60;99.80;;;;;;5129683;27;37102;-61
2021/12/28 01:38:08;;;;;;;22.92;15.10;;;5.60;99.90;;;;;;5129781;27;35486;-61
2021/12/28 01:40:38;;;;;;;23.70;16.75;;;5.60;99.90;;;;;;5129973;27;36117;-61
2021/12/28 01:43:11;;;;;;;24.08;17.95;;;5.70;99.90;;;;;;5129853;27;39426;-61
2021/12/28 01:45:43;;;;;;;24.45;16.92;;;5.70;99.90;;;;;;5129682;27;37724;-61
2021/12/28 01:48:12;;;;;;;27.58;17.38;;;5.80;99.90;;;;;;5129694;27;35446;-61
2021/12/28 01:50:40;;;;;;;29.08;18.48;;;5.80;99.90;;;;;;5128607;27;38889;-61
2021/12/28 01:53:09;;;;;;;28.60;18.55;;;5.80;99.90;;;;;;5129393;27;37686;-61
2021/12/28 01:55:39;;;;;;;28.08;19.83;;;5.80;99.90;;;;;;5128645;27;38563;-61
2021/12/28 01:58:07;;;;;;;33.33;20.02;;;5.90;99.90;;;;;;5130295;27;38760;-61
2021/12/28 02:00:35;;;;;;;32.28;19.08;;;5.90;99.90;;;;;;5128335;27;36695;-61
2021/12/28 02:03:08;;;;;;;38.67;20.50;;;5.90;99.90;;;;;;5129912;27;39179;-61
2021/12/28 02:05:36;;;;;;;33.80;20.10;;;5.90;99.90;;;;;;5129744;27;36236;-61
2021/12/28 02:08:04;;;;;;;31.58;20.05;;;6.00;99.90;;;;;;5130559;27;37758;-61
2021/12/28 02:10:32;;;;;;;29.85;19.92;;;6.00;99.90;;;;;;5129906;27;38389;-61
2021/12/28 02:13:00;;;;;;;33.03;19.33;;;6.00;99.90;;;;;;5129638;27;38340;-61
2021/12/28 02:15:27;;;;;;;36.08;21.92;;;6.10;99.90;;;;;;5130014;27;36210;-61
2021/12/28 02:17:54;;;;;;;38.30;22.85;;;6.00;99.90;;;;;;5129971;27;38051;-60
2021/12/28 02:20:23;;;;;;;37.92;21.65;;;6.10;99.90;;;;;;5129613;27;38110;-60
2021/12/28 02:22:51;;;;;;;63.00;25.35;;;6.10;99.90;;;;;;5129817;27;37905;-60
2021/12/28 02:25:19;;;;;;;49.67;23.90;;;6.10;99.90;;;;;;5128880;27;37297;-60
2021/12/28 02:27:47;;;;;;;46.17;23.80;;;6.20;99.90;;;;;;5128846;27;36819;-59
2021/12/28 02:30:19;;;;;;;56.70;24.38;;;6.20;99.90;;;;;;5129715;27;35814;-59
2021/12/28 02:32:48;;;;;;;48.08;24.30;;;6.20;99.90;;;;;;5129487;27;37743;-59
2021/12/28 02:35:17;;;;;;;47.00;24.60;;;6.20;99.90;;;;;;5129755;27;37494;-60
2021/12/28 02:37:46;;;;;;;54.33;25.10;;;6.30;99.90;;;;;;5129768;27;36693;-59
2021/12/28 02:40:15;;;;;;;50.65;25.73;;;6.30;99.90;;;;;;5129171;27;38721;-59
2021/12/28 02:42:43;;;;;;;58.15;25.30;;;6.30;99.90;;;;;;5128821;27;36670;-59
2021/12/28 02:45:12;;;;;;;66.45;26.67;;;6.30;99.90;;;;;;5129242;27;38616;-60
2021/12/28 02:47:43;;;;;;;52.05;24.85;;;6.40;99.90;;;;;;5129589;27;36740;-59
2021/12/28 02:50:12;;;;;;;65.47;25.25;;;6.40;99.90;;;;;;5128231;27;37618;-59
2021/12/28 02:52:40;;;;;;;63.95;28.27;;;6.40;99.90;;;;;;5129274;27;38387;-59
2021/12/28 02:55:12;;;;;;;63.55;27.52;;;6.50;99.90;;;;;;5127991;27;37495;-59
2021/12/28 02:57:47;;;;;;;50.83;25.77;;;6.50;99.90;;;;;;5129468;27;38145;-59
2021/12/28 03:00:29;;;;;;;118.47;29.88;;;6.50;99.90;;;;;;5128225;27;38164;-60
2021/12/28 03:02:56;;;;;;;56.65;28.55;;;6.50;99.90;;;;;;5127584;27;37998;-61
2021/12/28 03:05:24;;;;;;;74.43;27.15;;;6.50;99.90;;;;;;5129043;27;36278;-61
2021/12/28 03:07:51;;;;;;;61.40;27.45;;;6.50;99.90;;;;;;5128436;27;37806;-61
2021/12/28 03:10:20;;;;;;;74.22;29.25;;;6.60;99.90;;;;;;5128009;27;37695;-61
2021/12/28 03:12:47;;;;;;;69.32;28.38;;;6.60;99.90;;;;;;5128798;27;37898;-61
2021/12/28 03:15:14;;;;;;;57.45;27.23;;;6.60;99.90;;;;;;5128683;27;37850;-61
2021/12/28 03:17:42;;;;;;;70.15;28.17;;;6.60;99.90;;;;;;5129467;27;36757;-61
2021/12/28 03:20:12;;;;;;;74.70;26.88;;;6.60;99.90;;;;;;5128332;27;37947;-61
2021/12/28 03:22:40;;;;;;;73.82;27.10;;;6.60;99.90;;;;;;5128755;27;37663;-61
2021/12/28 03:25:09;;;;;;;79.25;27.13;;;6.70;99.90;;;;;;5128806;27;37594;-61
2021/12/28 03:27:38;;;;;;;76.20;26.75;;;6.70;99.90;;;;;;5129133;27;39449;-61
2021/12/28 03:30:08;;;;;;;71.28;27.98;;;6.70;99.90;;;;;;5128632;27;38980;-61
2021/12/28 03:32:35;;;;;;;89.03;29.05;;;6.70;99.90;;;;;;5128222;27;37679;-61
2021/12/28 03:35:04;;;;;;;96.97;28.10;;;6.70;99.90;;;;;;5128476;27;36345;-61
2021/12/28 03:37:31;;;;;;;95.13;29.02;;;6.70;99.90;;;;;;5128421;27;36609;-61
2021/12/28 03:39:59;;;;;;;81.28;27.10;;;6.70;99.90;;;;;;5128306;27;37566;-61
2021/12/28 03:42:27;;;;;;;76.25;27.70;;;6.70;99.90;;;;;;5127698;27;37847;-61
2021/12/28 03:44:56;;;;;;;65.07;28.73;;;6.70;99.90;;;;;;5128996;27;37355;-61
2021/12/28 03:47:23;;;;;;;72.53;27.95;;;6.70;99.90;;;;;;5128705;27;37016;-61
2021/12/28 03:49:51;;;;;;;48.38;26.83;;;6.70;99.90;;;;;;5128092;27;37994;-61
2021/12/28 03:52:18;;;;;;;76.07;28.83;;;6.80;99.90;;;;;;5127379;27;36337;-61
2021/12/28 03:54:46;;;;;;;55.83;28.17;;;6.80;99.90;;;;;;5127845;27;38971;-61
2021/12/28 03:57:14;;;;;;;54.95;28.13;;;6.80;99.90;;;;;;5129123;27;20094;-61
2021/12/28 03:59:42;;;;;;;51.05;28.17;;;6.80;99.90;;;;;;5127029;27;37558;-61
2021/12/28 04:02:10;;;;;;;63.30;28.85;;;6.80;99.90;;;;;;5127890;27;36266;-61
2021/12/28 04:04:38;;;;;;;51.10;26.73;;;6.80;99.90;;;;;;5127484;27;37838;-61
2021/12/28 04:07:08;;;;;;;56.58;27.17;;;6.90;99.90;;;;;;5126719;27;37962;-61
2021/12/28 04:09:58;;;;;;;61.50;29.05;;;6.90;99.90;;;;;;5127287;27;38516;-61
2021/12/28 04:12:25;;;;;;;60.28;26.77;;;6.90;99.90;;;;;;5128089;27;38577;-61
2021/12/28 04:14:53;;;;;;;92.50;30.40;;;6.90;99.90;;;;;;5128487;27;37518;-61
2021/12/28 04:17:22;;;;;;;87.82;29.90;;;6.90;99.90;;;;;;5127498;27;36910;-61
2021/12/28 04:19:49;;;;;;;79.20;31.33;;;7.00;99.90;;;;;;5127031;27;37919;-61
2021/12/28 04:22:17;;;;;;;61.72;28.55;;;6.90;99.90;;;;;;5127808;27;37632;-61
2021/12/28 04:24:44;;;;;;;65.50;28.05;;;7.00;99.90;;;;;;5127626;27;36503;-61
2021/12/28 04:27:12;;;;;;;60.80;26.42;;;7.00;99.90;;;;;;5127915;27;36921;-61
2021/12/28 04:29:39;;;;;;;48.03;26.48;;;7.00;99.90;;;;;;5127893;27;38962;-61
2021/12/28 04:32:08;;;;;;;50.72;24.85;;;7.00;99.90;;;;;;5127906;27;36274;-61
2021/12/28 04:34:36;;;;;;;62.90;27.13;;;7.00;99.90;;;;;;5127588;27;36161;-61
2021/12/28 04:37:04;;;;;;;50.88;23.33;;;7.00;99.90;;;;;;5128971;27;37423;-61
2021/12/28 04:39:31;;;;;;;63.55;25.45;;;6.90;99.90;;;;;;5131301;27;38969;-61
2021/12/28 04:41:59;;;;;;;59.33;24.00;;;6.90;99.90;;;;;;5130807;27;37532;-61
2021/12/28 04:44:26;;;;;;;67.50;25.90;;;6.90;99.90;;;;;;5130888;27;37312;-61
2021/12/28 04:46:54;;;;;;;65.55;23.75;;;6.90;99.90;;;;;;5130175;27;37023;-61
2021/12/28 04:49:24;;;;;;;65.55;25.33;;;6.90;99.90;;;;;;5130800;27;38845;-61
2021/12/28 04:51:53;;;;;;;53.97;24.50;;;6.90;99.90;;;;;;5130607;27;37570;-61
2021/12/28 04:54:23;;;;;;;55.35;25.48;;;6.90;99.90;;;;;;5131122;27;38346;-61
2021/12/28 04:56:50;;;;;;;57.83;25.58;;;6.90;99.90;;;;;;5130856;27;37775;-61
2021/12/28 04:59:19;;;;;;;60.95;24.90;;;6.90;99.90;;;;;;5130457;27;38435;-61
2021/12/28 05:01:46;;;;;;;58.80;24.70;;;6.90;99.90;;;;;;5131264;27;38607;-61
2021/12/28 05:04:14;;;;;;;56.58;25.70;;;6.90;99.90;;;;;;5130788;27;36224;-61
2021/12/28 05:06:41;;;;;;;64.03;27.30;;;6.90;99.90;;;;;;5130462;27;37274;-61
2021/12/28 05:09:11;;;;;;;64.03;26.73;;;6.90;99.90;;;;;;5130568;27;37693;-61
2021/12/28 05:11:40;;;;;;;62.15;27.08;;;6.90;99.90;;;;;;5130528;27;39204;-61
2021/12/28 05:14:08;;;;;;;65.72;27.90;;;6.90;99.90;;;;;;5130138;27;36237;-61
2021/12/28 05:16:36;;;;;;;55.53;25.95;;;7.00;99.90;;;;;;5130803;27;38313;-61
2021/12/28 05:19:06;;;;;;;51.78;26.25;;;7.00;99.90;;;;;;5129710;27;37555;-61
2021/12/28 05:21:35;;;;;;;70.20;27.73;;;7.00;99.90;;;;;;5130847;27;38419;-61
2021/12/28 05:24:02;;;;;;;67.05;27.48;;;7.00;99.90;;;;;;5130950;27;37611;-61
2021/12/28 05:26:31;;;;;;;59.63;27.02;;;7.00;99.90;;;;;;5129896;27;36453;-61
2021/12/28 05:28:58;;;;;;;54.38;28.48;;;7.00;99.90;;;;;;5130444;27;36270;-61
2021/12/28 05:31:27;;;;;;;59.05;27.95;;;7.10;99.90;;;;;;5129984;27;38204;-61
2021/12/28 05:33:55;;;;;;;58.90;28.60;;;7.10;99.90;;;;;;5131384;27;38885;-61
2021/12/28 05:36:25;;;;;;;58.97;27.65;;;7.00;99.90;;;;;;5130323;27;37337;-61
2021/12/28 05:38:53;;;;;;;51.65;26.08;;;7.10;99.90;;;;;;5130147;27;38301;-61
2021/12/28 05:41:21;;;;;;;51.67;27.67;;;7.10;99.90;;;;;;5129549;27;37699;-61
2021/12/28 05:43:50;;;;;;;55.58;26.90;;;7.10;99.90;;;;;;5130691;27;37699;-61
2021/12/28 05:46:17;;;;;;;47.10;25.25;;;7.10;99.90;;;;;;5130881;27;37112;-61
2021/12/28 05:48:47;;;;;;;48.20;25.40;;;7.10;99.90;;;;;;5128768;27;37400;-61
2021/12/28 05:51:15;;;;;;;90.35;27.45;;;7.10;99.90;;;;;;5130932;27;37755;-61
2021/12/28 05:53:43;;;;;;;54.53;25.90;;;7.10;99.90;;;;;;5130195;27;37582;-61
2021/12/28 05:56:10;;;;;;;46.15;23.48;;;7.00;99.90;;;;;;5128775;27;36667;-61
2021/12/28 05:58:38;;;;;;;46.83;23.95;;;7.00;99.90;;;;;;5130977;27;38014;-61
2021/12/28 06:01:06;;;;;;;50.58;23.52;;;6.90;99.90;;;;;;5129302;27;37839;-61
2021/12/28 06:03:34;;;;;;;41.65;23.40;;;6.90;99.90;;;;;;5129480;27;34456;-61
2021/12/28 06:06:01;;;;;;;37.10;21.70;;;6.90;99.90;;;;;;5130044;27;37354;-61
2021/12/28 06:08:29;;;;;;;42.10;21.73;;;6.80;99.90;;;;;;5130611;27;38291;-61
2021/12/28 06:10:56;;;;;;;37.35;22.48;;;6.80;99.90;;;;;;5129865;27;36246;-61
2021/12/28 06:13:24;;;;;;;32.85;20.05;;;6.80;99.90;;;;;;5129948;27;38128;-61
2021/12/28 06:15:51;;;;;;;41.80;21.35;;;6.70;99.90;;;;;;5128963;27;36740;-61
2021/12/28 06:18:20;;;;;;;38.20;22.50;;;6.70;99.90;;;;;;5129755;27;38576;-61
2021/12/28 06:20:48;;;;;;;30.23;20.75;;;6.70;99.90;;;;;;5129617;27;36490;-61
2021/12/28 06:23:17;;;;;;;34.47;21.50;;;6.70;99.90;;;;;;5128752;27;38879;-62
2021/12/28 06:25:44;;;;;;;33.60;21.70;;;6.60;99.90;;;;;;5130010;27;35542;-61
2021/12/28 06:28:12;;;;;;;31.55;20.35;;;6.60;99.90;;;;;;5129594;27;37606;-61
2021/12/28 06:30:39;;;;;;;32.70;20.48;;;6.60;99.90;;;;;;5129267;27;38942;-61
2021/12/28 06:33:06;;;;;;;32.25;20.30;;;6.60;99.90;;;;;;5130190;27;35982;-61
2021/12/28 06:35:35;;;;;;;30.42;19.70;;;6.50;99.90;;;;;;5129935;27;37547;-61
2021/12/28 06:38:03;;;;;;;32.85;21.00;;;6.60;99.90;;;;;;5129503;27;37696;-61
2021/12/28 06:40:30;;;;;;;30.85;20.80;;;6.50;99.90;;;;;;5129330;27;38719;-61
2021/12/28 06:42:58;;;;;;;32.42;20.95;;;6.50;99.90;;;;;;5129523;27;36123;-61
2021/12/28 06:45:26;;;;;;;33.10;20.08;;;6.50;99.90;;;;;;5129407;27;36766;-61
2021/12/28 06:47:53;;;;;;;29.65;18.90;;;6.60;99.90;;;;;;5129687;27;37239;-61
2021/12/28 06:50:20;;;;;;;29.48;18.55;;;6.50;99.90;;;;;;5129918;27;39014;-61
2021/12/28 06:52:49;;;;;;;31.38;19.58;;;6.50;99.90;;;;;;5129183;27;38361;-61
2021/12/28 06:55:16;;;;;;;34.03;18.63;;;6.60;99.90;;;;;;5129294;27;35405;-61
2021/12/28 06:57:44;;;;;;;27.92;18.23;;;6.50;99.90;;;;;;5129783;27;38456;-61
2021/12/28 07:00:14;;;;;;;29.00;18.52;;;6.50;99.90;;;;;;5128850;27;38559;-61
2021/12/28 07:02:42;;;;;;;28.17;17.35;;;6.50;99.90;;;;;;5128622;27;40229;-61
2021/12/28 07:05:11;;;;;;;25.33;16.05;;;6.40;99.90;;;;;;5128670;27;36896;-61
2021/12/28 07:07:39;;;;;;;24.25;15.85;;;6.40;99.90;;;;;;5127843;27;38679;-61
2021/12/28 07:10:10;;;;;;;27.52;17.15;;;6.40;99.90;;;;;;5128725;27;37692;-61
2021/12/28 07:12:37;;;;;;;25.70;15.98;;;6.40;99.90;;;;;;5128936;27;37889;-61
2021/12/28 07:15:06;;;;;;;26.00;16.08;;;6.30;99.90;;;;;;5128907;27;34855;-61
2021/12/28 07:17:33;;;;;;;28.30;17.13;;;6.30;99.90;;;;;;5129146;27;37124;-61
2021/12/28 07:20:01;;;;;;;26.80;15.98;;;6.30;99.90;;;;;;5128722;27;37707;-61
2021/12/28 07:22:28;;;;;;;26.30;15.45;;;6.30;99.90;;;;;;5128454;27;37866;-61
2021/12/28 07:24:55;;;;;;;27.02;14.48;;;6.20;99.90;;;;;;5128604;27;36640;-61
2021/12/28 07:27:24;;;;;;;27.75;15.65;;;6.20;99.90;;;;;;5127713;27;37310;-61
2021/12/28 07:29:51;;;;;;;26.30;15.30;;;6.30;99.90;;;;;;5127264;27;38921;-61
2021/12/28 07:32:19;;;;;;;25.70;15.00;;;6.20;99.90;;;;;;5127944;27;37368;-61
2021/12/28 07:34:46;;;;;;;24.67;15.27;;;6.20;99.90;;;;;;5126989;27;35218;-61
2021/12/28 07:37:13;;;;;;;23.42;14.50;;;6.30;99.90;;;;;;5127540;27;39468;-61
2021/12/28 07:39:41;;;;;;;26.95;14.25;;;6.20;99.90;;;;;;5127489;27;36563;-61
2021/12/28 07:42:09;;;;;;;24.35;14.23;;;6.30;99.90;;;;;;5127476;27;38001;-61
2021/12/28 07:44:38;;;;;;;22.00;13.20;;;6.30;99.90;;;;;;5127698;27;37021;-61
2021/12/28 07:47:05;;;;;;;24.35;15.23;;;6.30;99.90;;;;;;5128130;27;37883;-61
2021/12/28 07:49:33;;;;;;;25.13;13.25;;;6.40;99.90;;;;;;5127931;27;38625;-61
2021/12/28 07:52:00;;;;;;;25.08;14.35;;;6.40;99.90;;;;;;5128801;27;37233;-61
2021/12/28 07:54:28;;;;;;;22.77;14.70;;;6.40;99.90;;;;;;5128145;27;37936;-61
2021/12/28 07:56:55;;;;;;;24.67;13.40;;;6.40;99.90;;;;;;5127547;27;37935;-61
2021/12/28 07:59:22;;;;;;;22.98;12.77;;;6.50;99.90;;;;;;5128615;27;36514;-61
2021/12/28 08:01:51;;;;;;;25.70;13.18;;;6.50;99.90;;;;;;5127057;27;37410;-61
2021/12/28 08:04:19;;;;;;;27.10;13.70;;;6.60;99.90;;;;;;5127598;27;37111;-61
2021/12/28 08:06:46;;;;;;;24.75;12.93;;;6.60;99.90;;;;;;5127927;27;37523;-61
2021/12/28 08:09:14;;;;;;;26.75;13.50;;;6.60;99.90;;;;;;5127678;27;36474;-61
2021/12/28 08:11:42;;;;;;;26.38;12.40;;;6.70;99.90;;;;;;5127746;27;37563;-61
2021/12/28 08:14:09;;;;;;;25.98;12.45;;;6.70;99.90;;;;;;5127671;27;36925;-61
2021/12/28 08:16:37;;;;;;;26.70;11.18;;;6.70;99.90;;;;;;5127455;27;37624;-61
2021/12/28 08:19:08;;;;;;;24.63;12.00;;;6.80;99.90;;;;;;5126533;27;37266;-61
2021/12/28 08:21:35;;;;;;;25.45;11.68;;;6.80;99.90;;;;;;5126909;27;39983;-61
2021/12/28 08:24:03;;;;;;;24.42;11.68;;;6.90;99.90;;;;;;5127424;27;38099;-61
2021/12/28 08:26:30;;;;;;;24.73;11.85;;;6.90;99.90;;;;;;5127584;27;37322;-61
2021/12/28 08:28:57;;;;;;;22.30;11.65;;;6.90;99.90;;;;;;5126172;27;39082;-61
2021/12/28 08:31:25;;;;;;;27.50;13.48;;;6.90;99.90;;;;;;5118986;27;37672;-61
2021/12/28 08:33:52;;;;;;;23.77;11.60;;;6.90;99.90;;;;;;5120588;27;35496;-61
2021/12/28 08:36:21;;;;;;;20.45;10.38;;;6.90;99.90;;;;;;5121214;27;40055;-61
2021/12/28 08:38:48;;;;;;;20.95;10.05;;;7.00;99.90;;;;;;5120528;27;37447;-61
2021/12/28 08:41:17;;;;;;;22.23;9.93;;;7.00;99.90;;;;;;5120776;27;38056;-61
2021/12/28 08:43:45;;;;;;;20.70;10.18;;;7.00;99.90;;;;;;5121003;27;38635;-61
2021/12/28 08:46:12;;;;;;;22.60;10.40;;;7.10;99.90;;;;;;5121318;27;38069;-61
2021/12/28 08:48:40;;;;;;;23.55;10.82;;;7.10;99.90;;;;;;5121101;27;39065;-61
2021/12/28 08:51:08;;;;;;;29.00;10.77;;;7.10;99.90;;;;;;5121497;27;37818;-61
2021/12/28 08:53:37;;;;;;;28.33;11.02;;;7.10;99.90;;;;;;5123856;27;36889;-61
2021/12/28 08:56:04;;;;;;;20.83;9.55;;;7.20;99.90;;;;;;5123042;27;37442;-61
2021/12/28 08:58:32;;;;;;;24.17;10.23;;;7.20;99.90;;;;;;5123379;27;39057;-61
2021/12/28 09:01:00;;;;;;;18.88;8.57;;;7.20;99.90;;;;;;5122142;27;36180;-61
2021/12/28 09:03:28;;;;;;;21.98;9.50;;;7.30;99.90;;;;;;5124083;27;36482;-61
2021/12/28 09:05:55;;;;;;;27.83;9.68;;;7.30;99.90;;;;;;5123967;27;37698;-61
2021/12/28 09:08:23;;;;;;;20.33;9.40;;;7.30;99.90;;;;;;5123044;27;38707;-61
2021/12/28 09:10:52;;;;;;;23.92;9.45;;;7.40;99.90;;;;;;5123177;27;36007;-61
2021/12/28 09:13:19;;;;;;;16.55;8.48;;;7.40;99.90;;;;;;5124038;27;35263;-61
2021/12/28 09:15:47;;;;;;;16.92;8.32;;;7.40;99.90;;;;;;5123556;27;37571;-61
2021/12/28 09:18:14;;;;;;;21.27;9.48;;;7.60;99.90;;;;;;5123608;27;38899;-61
2021/12/28 09:20:45;;;;;;;17.13;8.05;;;7.70;99.90;;;;;;5123505;27;36137;-61
2021/12/28 09:23:13;;;;;;;17.80;7.43;;;7.80;99.90;;;;;;5124446;27;39443;-61
2021/12/28 09:25:41;;;;;;;23.77;7.60;;;7.80;99.90;;;;;;5126622;27;37985;-61
2021/12/28 09:28:11;;;;;;;17.58;8.00;;;7.80;99.90;;;;;;5126473;27;37975;-61
2021/12/28 09:30:40;;;;;;;18.38;7.13;;;7.70;99.90;;;;;;5126340;27;38440;-61
2021/12/28 09:33:08;;;;;;;18.55;8.30;;;7.70;99.90;;;;;;5126669;27;36197;-61
2021/12/28 09:35:41;;;;;;;17.38;7.40;;;7.70;99.90;;;;;;5124886;27;37622;-61
2021/12/28 09:38:09;;;;;;;18.95;6.85;;;7.70;99.90;;;;;;5124875;27;37678;-61
2021/12/28 09:40:37;;;;;;;22.88;7.07;;;7.70;99.90;;;;;;5126960;27;38360;-61
2021/12/28 09:43:07;;;;;;;15.25;6.82;;;7.70;99.90;;;;;;5125935;27;36515;-61
2021/12/28 09:45:36;;;;;;;17.27;7.68;;;7.80;99.90;;;;;;5126944;27;36325;-61
2021/12/28 09:48:04;;;;;;;18.02;7.38;;;7.80;99.90;;;;;;5125664;27;37726;-61
2021/12/28 09:50:32;;;;;;;19.50;7.03;;;7.80;99.90;;;;;;5126565;27;37594;-61
2021/12/28 09:53:01;;;;;;;15.52;7.32;;;7.80;99.90;;;;;;5126421;27;34625;-61
2021/12/28 09:55:30;;;;;;;21.60;7.13;;;7.80;99.90;;;;;;5126227;27;36384;-61
2021/12/28 09:57:58;;;;;;;16.27;6.30;;;7.80;99.90;;;;;;5126089;27;36378;-61
2021/12/28 10:00:26;;;;;;;19.77;7.47;;;7.80;99.90;;;;;;5126298;27;36212;-61
2021/12/28 10:02:55;;;;;;;19.15;7.05;;;7.90;99.90;;;;;;5126908;27;35525;-61
2021/12/28 10:05:24;;;;;;;19.45;6.50;;;7.90;99.90;;;;;;5124406;27;37773;-61
2021/12/28 10:07:56;;;;;;;16.90;6.03;;;7.90;99.90;;;;;;5125295;27;38058;-61
2021/12/28 10:10:24;;;;;;;15.57;6.20;;;7.90;99.90;;;;;;5125604;27;37567;-61
2021/12/28 10:12:54;;;;;;;17.60;6.25;;;8.00;99.90;;;;;;5126293;27;37300;-61
2021/12/28 10:15:24;;;;;;;16.17;6.10;;;8.00;99.90;;;;;;5126009;27;38743;-61
2021/12/28 10:18:02;;;;;;;16.95;6.07;;;8.00;99.90;;;;;;5126537;27;38615;-61
2021/12/28 10:20:32;;;;;;;17.38;6.22;;;8.00;99.90;;;;;;5125832;27;38559;-61
2021/12/28 10:23:02;;;;;;;15.38;5.40;;;8.00;99.90;;;;;;5126143;27;36645;-61
2021/12/28 10:25:31;;;;;;;17.30;6.53;;;8.00;99.90;;;;;;5125866;27;36333;-61
2021/12/28 10:28:01;;;;;;;17.58;5.75;;;8.00;99.90;;;;;;5124215;27;37855;-61
2021/12/28 10:30:31;;;;;;;14.80;5.65;;;8.10;99.90;;;;;;5123477;27;37830;-61
2021/12/28 10:33:01;;;;;;;20.23;6.53;;;8.10;99.90;;;;;;5123353;27;36578;-61
2021/12/28 10:35:32;;;;;;;15.18;5.65;;;8.10;99.90;;;;;;5121976;27;37512;-61
2021/12/28 10:38:02;;;;;;;19.67;7.38;;;8.10;99.90;;;;;;5121972;27;38413;-61
2021/12/28 10:40:33;;;;;;;18.98;6.40;;;8.10;99.90;;;;;;5123088;27;36043;-61
2021/12/28 10:43:05;;;;;;;23.20;6.80;;;8.20;99.90;;;;;;5122253;27;36709;-61
2021/12/28 10:45:37;;;;;;;18.58;6.95;;;8.10;99.90;;;;;;5123032;27;38269;-61
2021/12/28 10:48:08;;;;;;;16.27;6.32;;;8.10;99.90;;;;;;5123282;27;38218;-61
2021/12/28 10:50:40;;;;;;;18.60;6.43;;;8.10;99.90;;;;;;5123884;27;37634;-60
2021/12/28 10:53:17;;;;;;;16.52;7.00;;;8.10;99.90;;;;;;5123444;27;37761;-61
2021/12/28 10:55:46;;;;;;;16.63;6.05;;;8.10;99.90;;;;;;5122940;27;36525;-61
2021/12/28 10:58:33;;;;;;;15.82;6.28;;;8.10;99.90;;;;;;5123286;27;38039;-61
2021/12/28 11:01:04;;;;;;;17.98;5.93;;;8.00;99.90;;;;;;5122351;27;37657;-60
2021/12/28 11:03:35;;;;;;;17.17;6.13;;;8.00;99.90;;;;;;5122601;27;36433;-61
2021/12/28 11:06:18;;;;;;;17.20;6.22;;;8.00;99.90;;;;;;5122313;27;37388;-61
2021/12/28 11:08:48;;;;;;;17.65;6.85;;;8.00;99.90;;;;;;5123438;27;37897;-61
2021/12/28 11:11:17;;;;;;;16.17;6.95;;;8.00;99.90;;;;;;5122710;27;38097;-61
2021/12/28 11:13:46;;;;;;;16.85;7.00;;;8.00;99.90;;;;;;5121837;27;36535;-61
2021/12/28 11:16:15;;;;;;;20.42;7.20;;;8.00;99.90;;;;;;5123256;27;38147;-61
2021/12/28 11:18:45;;;;;;;11.77;5.78;;;8.00;99.90;;;;;;5120827;27;37539;-61
2021/12/28 11:21:19;;;;;;;25.77;6.75;;;8.00;99.90;;;;;;5121717;27;38394;-61
2021/12/28 11:23:49;;;;;;;14.43;6.32;;;8.00;99.90;;;;;;5121230;27;37637;-61
2021/12/28 11:26:21;;;;;;;14.93;6.65;;;8.10;99.90;;;;;;5122584;27;37213;-61
2021/12/28 11:29:01;;;;;;;16.02;6.40;;;8.00;99.90;;;;;;5121944;27;37678;-61
2021/12/28 11:31:33;;;;;;;17.80;6.30;;;8.00;99.90;;;;;;5121173;27;37594;-61
2021/12/28 11:34:05;;;;;;;22.60;7.47;;;7.90;99.90;;;;;;5122637;27;36582;-61
2021/12/28 11:36:35;;;;;;;17.40;6.55;;;8.00;99.90;;;;;;5123198;27;37061;-61
2021/12/28 11:39:06;;;;;;;15.27;6.57;;;8.00;99.90;;;;;;5122592;27;38859;-61
2021/12/28 11:41:33;;;;;;;18.38;7.10;;;8.00;99.90;;;;;;5121681;27;37882;-62
2021/12/28 11:44:02;;;;;;;15.32;7.00;;;8.00;99.90;;;;;;5121879;27;35209;-61
2021/12/28 11:46:29;;;;;;;17.38;7.00;;;8.00;99.90;;;;;;5121086;27;37130;-61
2021/12/28 11:48:57;;;;;;;14.70;7.78;;;8.00;99.90;;;;;;5121554;27;38345;-62
2021/12/28 11:51:26;;;;;;;17.30;7.65;;;8.00;99.90;;;;;;5121995;27;37479;-61
2021/12/28 11:53:56;;;;;;;15.60;7.38;;;8.00;99.90;;;;;;5121678;27;36522;-61
2021/12/28 11:56:28;;;;;;;13.45;7.30;;;8.00;99.90;;;;;;5122475;27;37761;-61
2021/12/28 11:59:08;;;;;;;12.52;6.85;;;8.00;99.90;;;;;;5122918;27;38576;-61
2021/12/28 12:01:45;;;;;;;15.93;7.68;;;8.00;99.90;;;;;;5122369;27;37091;-61
2021/12/28 12:04:55;;;;;;;14.32;6.95;;;8.00;99.90;;;;;;5122434;27;38221;-62
2021/12/28 12:07:33;;;;;;;15.07;7.75;;;8.00;99.90;;;;;;5114278;27;38477;-61
2021/12/28 12:10:14;;;;;;;16.92;7.55;;;8.10;99.90;;;;;;5122285;27;37477;-61
2021/12/28 12:12:54;;;;;;;20.00;7.95;;;8.10;99.90;;;;;;5122589;27;37355;-61
2021/12/28 12:15:23;;;;;;;15.25;7.72;;;8.10;99.90;;;;;;5122509;27;36207;-62
2021/12/28 12:17:51;;;;;;;15.13;7.47;;;8.10;99.90;;;;;;5121657;27;39110;-62
2021/12/28 12:20:30;;;;;;;16.50;7.88;;;8.10;99.90;;;;;;5120619;27;37594;-62
2021/12/28 12:23:27;;;;;;;13.80;7.60;;;8.20;99.90;;;;;;5121996;27;36144;-62
2021/12/28 12:26:11;;;;;;;14.10;8.23;;;8.20;99.90;;;;;;5121068;27;39036;-63
2021/12/28 12:28:51;;;;;;;17.60;7.93;;;8.20;99.90;;;;;;5120922;27;37699;-63
2021/12/28 12:31:37;;;;;;;11.73;6.90;;;8.20;99.90;;;;;;5121471;27;38350;-63
2021/12/28 12:34:07;;;;;;;13.88;6.97;;;8.20;99.90;;;;;;5120743;27;35379;-63
2021/12/28 12:36:41;;;;;;;16.25;6.78;;;8.20;99.90;;;;;;5121157;27;37087;-64
2021/12/28 12:39:10;;;;;;;11.85;7.30;;;8.20;99.90;;;;;;5120918;27;37610;-64
2021/12/28 12:41:49;;;;;;;15.52;7.15;;;8.20;99.90;;;;;;5120573;27;38228;-64
2021/12/28 12:44:20;;;;;;;12.50;6.32;;;8.20;99.90;;;;;;5119932;27;36156;-64
2021/12/28 12:46:48;;;;;;;11.45;6.22;;;8.20;99.90;;;;;;5121072;27;35164;-64
2021/12/28 12:49:24;;;;;;;10.63;6.50;;;8.20;99.90;;;;;;5121560;27;37549;-62
2021/12/28 12:51:58;;;;;;;12.35;6.93;;;8.30;99.90;;;;;;5121613;27;37792;-64